^^
Station Historical Data
Daily Summary for March 7, 2018 Units:  English    Metric   Both
« Previous Day
Next Day »
Daily Weekly Monthly Yearly Custom
  High: Low: Average:
Temperature: TemperatureF °F 57.0 °F 65.8 °F
Dew Point: DewpointF °F 26.0 °F 43.3 °F
Humidity: Humidity% 18% 51%
Wind Speed: WindSpeedMPHmph 0.0mph 0mph
Wind Gust: WindSpeedGustMPHmph - -
Wind- - North
Pressure: PressureIn in 29.86 in -
Precipitation: 0.10 in    
Historical Graphs
 
 
Tabular Data for March 7, 2018
Time Temperature Dew Point Pressure Wind Wind Speed Wind Gust Humidity Rainfall Rate (Hourly) solar Conditions
TemperatureF °F DewpointF °F PressureIn in Calm     Humidity% HourlyPrecipIn in SolarRadiationWatts/m^2 W/m2 Conditions
00:03 64.9 °F 60.6 °F 29.96 in Calm     86% 0.00 in 0.0 W/m2 BKN
00:08 64.9 °F 60.6 °F 29.96 in Calm     86% 0.00 in 0.0 W/m2 BKN
00:13 64.9 °F 60.6 °F 29.96 in Calm     86% 0.00 in 0.0 W/m2 BKN
00:18 64.9 °F 60.6 °F 29.96 in Calm     86% 0.00 in 0.0 W/m2 BKN
00:23 64.9 °F 60.6 °F 29.96 in Calm     86% 0.00 in 0.0 W/m2 BKN
00:28 64.9 °F 60.6 °F 29.96 in Calm     86% 0.00 in 0.0 W/m2 BKN
00:33 64.9 °F 60.6 °F 29.96 in Calm     86% 0.00 in 0.0 W/m2 BKN
00:38 64.9 °F 60.6 °F 29.96 in Calm     86% 0.00 in 0.0 W/m2 BKN
00:43 64.9 °F 60.6 °F 29.96 in Calm     86% 0.00 in 0.0 W/m2 BKN
00:48 64.9 °F 60.6 °F 29.96 in Calm     86% 0.00 in 0.0 W/m2 BKN
00:53 64.9 °F 60.6 °F 29.96 in Calm     86% 0.00 in 0.0 W/m2 BKN
00:58 64.9 °F 60.6 °F 29.96 in Calm     86% 0.00 in 0.0 W/m2 BKN
01:03 64.9 °F 62.9 °F 29.94 in Calm     93% 0.03 in 0.0 W/m2 -RA
01:08 64.9 °F 62.9 °F 29.94 in Calm     93% 0.03 in 0.0 W/m2 -RA
01:13 64.9 °F 62.9 °F 29.94 in Calm     93% 0.03 in 0.0 W/m2 -RA
01:18 64.9 °F 62.9 °F 29.94 in Calm     93% 0.03 in 0.0 W/m2 -RA
01:23 64.9 °F 62.9 °F 29.94 in Calm     93% 0.03 in 0.0 W/m2 -RA
01:28 64.9 °F 62.9 °F 29.94 in Calm     93% 0.03 in 0.0 W/m2 -RA
01:33 64.9 °F 62.9 °F 29.94 in Calm     93% 0.03 in 0.0 W/m2 -RA
01:38 64.9 °F 62.9 °F 29.94 in Calm     93% 0.03 in 0.0 W/m2 -RA
01:43 64.9 °F 62.9 °F 29.94 in Calm     93% 0.03 in 0.0 W/m2 -RA
01:48 64.9 °F 62.9 °F 29.94 in Calm     93% 0.03 in 0.0 W/m2 -RA
01:53 64.9 °F 62.9 °F 29.94 in Calm     93% 0.03 in 0.0 W/m2 -RA
01:58 64.9 °F 62.9 °F 29.94 in Calm     93% 0.03 in 0.0 W/m2 -RA
02:03 64.9 °F 62.9 °F 29.90 in Calm     93% 0.03 in 0.0 W/m2 RA
02:08 64.9 °F 62.9 °F 29.90 in Calm     93% 0.03 in 0.0 W/m2 RA
02:13 64.9 °F 62.9 °F 29.90 in Calm     93% 0.03 in 0.0 W/m2 BKN
02:18 64.9 °F 62.9 °F 29.90 in Calm     93% 0.03 in 0.0 W/m2 BKN
02:23 64.9 °F 62.9 °F 29.90 in Calm     93% 0.03 in 0.0 W/m2 BKN
02:28 64.9 °F 62.9 °F 29.90 in Calm     93% 0.03 in 0.0 W/m2 BKN
02:33 64.9 °F 62.9 °F 29.90 in Calm     93% 0.03 in 0.0 W/m2 BKN
02:38 64.9 °F 62.9 °F 29.90 in Calm     93% 0.03 in 0.0 W/m2 BKN
02:43 64.9 °F 62.9 °F 29.90 in Calm     93% 0.03 in 0.0 W/m2 BKN
02:48 64.9 °F 62.9 °F 29.90 in Calm     93% 0.03 in 0.0 W/m2 BKN
02:53 64.9 °F 62.9 °F 29.90 in Calm     93% 0.03 in 0.0 W/m2 BKN
02:58 64.9 °F 62.9 °F 29.90 in Calm     93% 0.03 in 0.0 W/m2 BKN
03:03 66.0 °F 62.0 °F 29.87 in Calm     87% 0.00 in 0.0 W/m2 SCT
03:08 66.0 °F 62.0 °F 29.87 in Calm     87% 0.00 in 0.0 W/m2 SCT
03:13 66.0 °F 62.0 °F 29.87 in Calm     87% 0.00 in 0.0 W/m2 SCT
03:18 66.0 °F 62.0 °F 29.87 in Calm     87% 0.00 in 0.0 W/m2 SCT
03:23 66.0 °F 62.0 °F 29.87 in Calm     87% 0.00 in 0.0 W/m2 SCT
03:28 66.0 °F 62.0 °F 29.87 in Calm     87% 0.00 in 0.0 W/m2 SCT
03:33 66.0 °F 62.0 °F 29.87 in Calm     87% 0.00 in 0.0 W/m2 SCT
03:38 66.0 °F 62.0 °F 29.87 in Calm     87% 0.00 in 0.0 W/m2 SCT
03:43 66.0 °F 62.0 °F 29.87 in Calm     87% 0.00 in 0.0 W/m2 SCT
03:48 66.0 °F 62.0 °F 29.87 in Calm     87% 0.00 in 0.0 W/m2 SCT
03:53 66.0 °F 62.0 °F 29.87 in Calm     87% 0.00 in 0.0 W/m2 SCT
03:58 66.0 °F 62.0 °F 29.87 in Calm     87% 0.00 in 0.0 W/m2 SCT
04:03 66.9 °F 61.9 °F 29.86 in Calm     84% 0.01 in 0.0 W/m2 RA
04:08 66.9 °F 61.9 °F 29.86 in Calm     84% 0.01 in 0.0 W/m2 RA
04:13 66.9 °F 61.9 °F 29.86 in Calm     84% 0.01 in 0.0 W/m2 OVC
04:18 66.9 °F 61.9 °F 29.86 in Calm     84% 0.01 in 0.0 W/m2 OVC
04:23 66.9 °F 61.9 °F 29.86 in Calm     84% 0.01 in 0.0 W/m2 OVC
04:28 66.9 °F 61.9 °F 29.86 in Calm     84% 0.01 in 0.0 W/m2 OVC
04:33 66.9 °F 61.9 °F 29.86 in Calm     84% 0.01 in 0.0 W/m2 OVC
04:38 66.9 °F 61.9 °F 29.86 in Calm     84% 0.01 in 0.0 W/m2 OVC
04:43 66.9 °F 61.9 °F 29.86 in Calm     84% 0.01 in 0.0 W/m2 OVC
04:48 66.9 °F 61.9 °F 29.86 in Calm     84% 0.01 in 0.0 W/m2 OVC
04:53 66.9 °F 61.9 °F 29.86 in Calm     84% 0.01 in 0.0 W/m2 OVC
04:58 66.9 °F 61.9 °F 29.86 in Calm     84% 0.01 in 0.0 W/m2 OVC
05:03 66.9 °F 62.9 °F 29.88 in Calm     87% 0.02 in 0.0 W/m2 -RA
05:08 66.9 °F 62.9 °F 29.88 in Calm     87% 0.02 in 0.0 W/m2 -RA
05:13 66.9 °F 62.9 °F 29.88 in Calm     87% 0.02 in 0.0 W/m2 -RA
05:18 66.9 °F 62.9 °F 29.88 in Calm     87% 0.02 in 0.0 W/m2 -RA
05:23 66.9 °F 62.9 °F 29.88 in Calm     87% 0.02 in 0.0 W/m2 -RA
05:28 66.9 °F 62.9 °F 29.88 in Calm     87% 0.02 in 0.0 W/m2 -RA
05:33 66.0 °F 63.9 °F 29.89 in Calm     93% 0.02 in 0.0 W/m2 -RA
05:38 66.0 °F 63.9 °F 29.89 in Calm     93% 0.02 in 0.0 W/m2 -RA
05:43 66.0 °F 63.9 °F 29.89 in Calm     93% 0.02 in 0.0 W/m2 -RA
05:48 66.0 °F 63.9 °F 29.89 in Calm     93% 0.02 in 0.0 W/m2 -RA
05:53 66.0 °F 63.9 °F 29.89 in Calm     93% 0.02 in 0.0 W/m2 -RA
05:58 66.0 °F 63.9 °F 29.89 in Calm     93% 0.02 in 0.0 W/m2 -RA
06:03 66.0 °F 64.8 °F 29.90 in Calm     96% 0.01 in 0.0 W/m2 RA
06:08 66.0 °F 64.8 °F 29.90 in Calm     96% 0.01 in 0.0 W/m2 RA
06:13 66.0 °F 64.8 °F 29.90 in Calm     96% 0.01 in 0.0 W/m2 OVC
06:18 66.0 °F 64.8 °F 29.90 in Calm     96% 0.01 in 0.0 W/m2 OVC
06:23 66.0 °F 64.8 °F 29.90 in Calm     96% 0.01 in 0.0 W/m2 OVC
06:28 66.0 °F 64.8 °F 29.90 in Calm     96% 0.01 in 0.0 W/m2 OVC
06:33 66.0 °F 64.8 °F 29.90 in Calm     96% 0.01 in 0.0 W/m2 OVC
06:38 66.0 °F 64.8 °F 29.90 in Calm     96% 0.01 in 0.0 W/m2 OVC
06:43 66.0 °F 64.8 °F 29.90 in Calm     96% 0.01 in 0.0 W/m2 OVC
06:48 66.9 °F 64.8 °F 29.92 in Calm     93% 0.01 in 0.0 W/m2 OVC
06:53 66.9 °F 64.8 °F 29.92 in Calm     93% 0.01 in 0.0 W/m2 OVC
06:58 66.9 °F 64.8 °F 29.92 in Calm     93% 0.01 in 0.0 W/m2 OVC
07:03 66.0 °F 62.0 °F 29.92 in Calm     87% 0.00 in 0.0 W/m2 OVC
07:08 66.0 °F 62.0 °F 29.92 in Calm     87% 0.00 in 0.0 W/m2 OVC
07:13 66.0 °F 62.0 °F 29.92 in Calm     87% 0.00 in 0.0 W/m2 OVC
07:18 66.0 °F 60.0 °F 29.93 in Calm     81% 0.00 in 0.0 W/m2 OVC
07:23 66.0 °F 60.0 °F 29.93 in Calm     81% 0.00 in 0.0 W/m2 OVC
07:28 66.0 °F 60.0 °F 29.93 in Calm     81% 0.00 in 0.0 W/m2 OVC
07:33 66.0 °F 60.0 °F 29.93 in Calm     81% 0.00 in 0.0 W/m2 BKN
07:38 66.0 °F 60.0 °F 29.93 in Calm     81% 0.00 in 0.0 W/m2 BKN
07:43 66.0 °F 60.0 °F 29.93 in Calm     81% 0.00 in 0.0 W/m2 BKN
07:48 64.9 °F 57.6 °F 29.94 in Calm     77% 0.00 in 0.0 W/m2 BKN
07:53 64.9 °F 57.6 °F 29.94 in Calm     77% 0.00 in 0.0 W/m2 BKN
07:58 64.9 °F 57.6 °F 29.94 in Calm     77% 0.00 in 0.0 W/m2 BKN
08:03 63.0 °F 49.7 °F 29.96 in Calm     62% 0.00 in 0.0 W/m2 FEW
08:08 63.0 °F 49.7 °F 29.96 in Calm     62% 0.00 in 0.0 W/m2 FEW
08:13 63.0 °F 49.7 °F 29.96 in Calm     62% 0.00 in 0.0 W/m2 FEW
08:18 63.0 °F 49.7 °F 29.96 in Calm     62% 0.00 in 0.0 W/m2 FEW
08:23 63.0 °F 49.7 °F 29.96 in Calm     62% 0.00 in 0.0 W/m2 FEW
08:24 63.0 °F 49.7 °F 29.96 in Calm     62% 0.00 in 0.0 W/m2 FEW
08:29 63.0 °F 49.7 °F 29.96 in Calm     62% 0.00 in 0.0 W/m2 FEW
08:34 63.0 °F 49.7 °F 29.96 in Calm     62% 0.00 in 0.0 W/m2 FEW
08:39 63.0 °F 49.7 °F 29.96 in Calm     62% 0.00 in 0.0 W/m2 FEW
08:44 63.0 °F 49.7 °F 29.96 in Calm     62% 0.00 in 0.0 W/m2 FEW
08:49 63.0 °F 49.7 °F 29.96 in Calm     62% 0.00 in 0.0 W/m2 FEW
08:54 63.0 °F 49.7 °F 29.96 in Calm     62% 0.00 in 0.0 W/m2 FEW
08:59 63.0 °F 49.7 °F 29.96 in Calm     62% 0.00 in 0.0 W/m2 FEW
09:04 64.0 °F 40.5 °F 29.99 in Calm     42% 0.00 in 0.0 W/m2 CLR
09:09 64.0 °F 40.5 °F 29.99 in Calm     42% 0.00 in 0.0 W/m2 CLR
09:14 64.0 °F 40.5 °F 29.99 in Calm     42% 0.00 in 0.0 W/m2 CLR
09:19 64.0 °F 40.5 °F 29.99 in Calm     42% 0.00 in 0.0 W/m2 CLR
09:24 64.0 °F 40.5 °F 29.99 in Calm     42% 0.00 in 0.0 W/m2 CLR
09:29 64.0 °F 40.5 °F 29.99 in Calm     42% 0.00 in 0.0 W/m2 CLR
09:34 64.0 °F 40.5 °F 29.99 in Calm     42% 0.00 in 0.0 W/m2 CLR
09:39 64.0 °F 40.5 °F 29.99 in Calm     42% 0.00 in 0.0 W/m2 CLR
09:44 64.0 °F 40.5 °F 29.99 in Calm     42% 0.00 in 0.0 W/m2 CLR
09:49 64.0 °F 40.5 °F 29.99 in Calm     42% 0.00 in 0.0 W/m2 CLR
09:54 64.0 °F 40.5 °F 29.99 in Calm     42% 0.00 in 0.0 W/m2 CLR
09:59 64.0 °F 40.5 °F 29.99 in Calm     42% 0.00 in 0.0 W/m2 CLR
10:04 68.0 °F 37.8 °F 29.98 in Calm     33% 0.00 in 0.0 W/m2 CLR
10:09 68.0 °F 37.8 °F 29.98 in Calm     33% 0.00 in 0.0 W/m2 CLR
10:14 68.0 °F 37.8 °F 29.98 in Calm     33% 0.00 in 0.0 W/m2 CLR
10:19 68.0 °F 37.8 °F 29.98 in Calm     33% 0.00 in 0.0 W/m2 CLR
10:24 68.0 °F 37.8 °F 29.98 in Calm     33% 0.00 in 0.0 W/m2 CLR
10:29 68.0 °F 37.8 °F 29.98 in Calm     33% 0.00 in 0.0 W/m2 CLR
10:34 68.0 °F 37.8 °F 29.98 in Calm     33% 0.00 in 0.0 W/m2 CLR
10:39 68.0 °F 37.8 °F 29.98 in Calm     33% 0.00 in 0.0 W/m2 CLR
10:44 68.0 °F 37.8 °F 29.98 in Calm     33% 0.00 in 0.0 W/m2 CLR
10:49 68.0 °F 37.8 °F 29.98 in Calm     33% 0.00 in 0.0 W/m2 CLR
10:54 68.0 °F 37.8 °F 29.98 in Calm     33% 0.00 in 0.0 W/m2 CLR
10:59 68.0 °F 37.8 °F 29.98 in Calm     33% 0.00 in 0.0 W/m2 CLR
11:04 68.0 °F 33.7 °F 30.00 in Calm     28% 0.00 in 0.0 W/m2 CLR
11:09 68.0 °F 33.7 °F 30.00 in Calm     28% 0.00 in 0.0 W/m2 CLR
11:14 68.0 °F 33.7 °F 30.00 in Calm     28% 0.00 in 0.0 W/m2 CLR
11:19 68.0 °F 33.7 °F 30.00 in Calm     28% 0.00 in 0.0 W/m2 CLR
11:24 68.0 °F 33.7 °F 30.00 in Calm     28% 0.00 in 0.0 W/m2 CLR
11:29 68.0 °F 33.7 °F 30.00 in Calm     28% 0.00 in 0.0 W/m2 CLR
11:34 68.0 °F 33.7 °F 30.00 in Calm     28% 0.00 in 0.0 W/m2 CLR
11:39 68.0 °F 33.7 °F 30.00 in Calm     28% 0.00 in 0.0 W/m2 CLR
11:44 68.0 °F 33.7 °F 30.00 in Calm     28% 0.00 in 0.0 W/m2 CLR
11:49 68.0 °F 33.7 °F 30.00 in Calm     28% 0.00 in 0.0 W/m2 CLR
11:54 68.0 °F 33.7 °F 30.00 in Calm     28% 0.00 in 0.0 W/m2 CLR
11:59 68.0 °F 33.7 °F 30.00 in Calm     28% 0.00 in 0.0 W/m2 CLR
12:04 70.0 °F 32.5 °F 29.99 in Calm     25% 0.00 in 0.0 W/m2 CLR
12:09 70.0 °F 32.5 °F 29.99 in Calm     25% 0.00 in 0.0 W/m2 CLR
12:14 70.0 °F 32.5 °F 29.99 in Calm     25% 0.00 in 0.0 W/m2 CLR
12:19 70.0 °F 32.5 °F 29.99 in Calm     25% 0.00 in 0.0 W/m2 CLR
12:24 70.0 °F 32.5 °F 29.99 in Calm     25% 0.00 in 0.0 W/m2 CLR
12:29 70.0 °F 32.5 °F 29.99 in Calm     25% 0.00 in 0.0 W/m2 CLR
12:34 70.0 °F 32.5 °F 29.99 in Calm     25% 0.00 in 0.0 W/m2 CLR
12:39 70.0 °F 32.5 °F 29.99 in Calm     25% 0.00 in 0.0 W/m2 CLR
12:44 70.0 °F 32.5 °F 29.99 in Calm     25% 0.00 in 0.0 W/m2 CLR
12:49 70.0 °F 32.5 °F 29.99 in Calm     25% 0.00 in 0.0 W/m2 CLR
12:54 70.0 °F 32.5 °F 29.99 in Calm     25% 0.00 in 0.0 W/m2 CLR
12:59 70.0 °F 32.5 °F 29.99 in Calm     25% 0.00 in 0.0 W/m2 CLR
13:04 72.0 °F 32.1 °F 29.97 in Calm     23% 0.00 in 0.0 W/m2 CLR
13:09 72.0 °F 32.1 °F 29.97 in Calm     23% 0.00 in 0.0 W/m2 CLR
13:14 72.0 °F 32.1 °F 29.97 in Calm     23% 0.00 in 0.0 W/m2 CLR
13:19 72.0 °F 32.1 °F 29.97 in Calm     23% 0.00 in 0.0 W/m2 CLR
13:24 72.0 °F 32.1 °F 29.97 in Calm     23% 0.00 in 0.0 W/m2 CLR
13:29 72.0 °F 32.1 °F 29.97 in Calm     23% 0.00 in 0.0 W/m2 CLR
13:34 72.0 °F 32.1 °F 29.97 in Calm     23% 0.00 in 0.0 W/m2 CLR
13:39 72.0 °F 32.1 °F 29.97 in Calm     23% 0.00 in 0.0 W/m2 CLR
13:44 72.0 °F 32.1 °F 29.97 in Calm     23% 0.00 in 0.0 W/m2 CLR
13:49 72.0 °F 32.1 °F 29.97 in Calm     23% 0.00 in 0.0 W/m2 CLR
13:54 72.0 °F 32.1 °F 29.97 in Calm     23% 0.00 in 0.0 W/m2 CLR
13:59 72.0 °F 32.1 °F 29.97 in Calm     23% 0.00 in 0.0 W/m2 CLR
14:04 73.0 °F 33.0 °F 29.96 in Calm     23% 0.00 in 0.0 W/m2 CLR
14:09 73.0 °F 33.0 °F 29.96 in Calm     23% 0.00 in 0.0 W/m2 CLR
14:14 73.0 °F 33.0 °F 29.96 in Calm     23% 0.00 in 0.0 W/m2 CLR
14:19 73.0 °F 33.0 °F 29.96 in Calm     23% 0.00 in 0.0 W/m2 CLR
14:24 73.0 °F 33.0 °F 29.96 in Calm     23% 0.00 in 0.0 W/m2 CLR
14:29 73.0 °F 33.0 °F 29.96 in Calm     23% 0.00 in 0.0 W/m2 CLR
14:34 73.0 °F 33.0 °F 29.96 in Calm     23% 0.00 in 0.0 W/m2 CLR
14:39 73.0 °F 33.0 °F 29.96 in Calm     23% 0.00 in 0.0 W/m2 CLR
14:44 73.0 °F 33.0 °F 29.96 in Calm     23% 0.00 in 0.0 W/m2 CLR
14:49 73.0 °F 33.0 °F 29.96 in Calm     23% 0.00 in 0.0 W/m2 CLR
14:54 73.0 °F 33.0 °F 29.96 in Calm     23% 0.00 in 0.0 W/m2 CLR
14:59 73.0 °F 33.0 °F 29.96 in Calm     23% 0.00 in 0.0 W/m2 CLR
15:04 73.0 °F 31.9 °F 29.94 in Calm     22% 0.00 in 0.0 W/m2 CLR
15:09 73.0 °F 31.9 °F 29.94 in Calm     22% 0.00 in 0.0 W/m2 CLR
15:14 73.0 °F 31.9 °F 29.94 in Calm     22% 0.00 in 0.0 W/m2 CLR
15:19 73.0 °F 31.9 °F 29.94 in Calm     22% 0.00 in 0.0 W/m2 CLR
15:24 73.0 °F 31.9 °F 29.94 in Calm     22% 0.00 in 0.0 W/m2 CLR
15:29 73.0 °F 31.9 °F 29.94 in Calm     22% 0.00 in 0.0 W/m2 CLR
15:34 73.0 °F 31.9 °F 29.94 in Calm     22% 0.00 in 0.0 W/m2 CLR
15:40 73.0 °F 31.9 °F 29.94 in Calm     22% 0.00 in 0.0 W/m2 CLR
15:45 73.0 °F 31.9 °F 29.94 in Calm     22% 0.00 in 0.0 W/m2 CLR
15:50 73.0 °F 31.9 °F 29.94 in Calm     22% 0.00 in 0.0 W/m2 CLR
15:55 73.0 °F 31.9 °F 29.94 in Calm     22% 0.00 in 0.0 W/m2 CLR
16:00 73.0 °F 31.9 °F 29.94 in Calm     22% 0.00 in 0.0 W/m2 CLR
16:05 73.0 °F 27.0 °F 29.93 in Calm     18% 0.00 in 0.0 W/m2 CLR
16:10 73.0 °F 27.0 °F 29.93 in Calm     18% 0.00 in 0.0 W/m2 CLR
16:15 73.0 °F 27.0 °F 29.93 in Calm     18% 0.00 in 0.0 W/m2 CLR
16:20 73.0 °F 27.0 °F 29.93 in Calm     18% 0.00 in 0.0 W/m2 CLR
16:25 73.0 °F 27.0 °F 29.93 in Calm     18% 0.00 in 0.0 W/m2 CLR
16:30 73.0 °F 27.0 °F 29.93 in Calm     18% 0.00 in 0.0 W/m2 CLR
16:35 73.0 °F 27.0 °F 29.93 in Calm     18% 0.00 in 0.0 W/m2 CLR
16:40 73.0 °F 27.0 °F 29.93 in Calm     18% 0.00 in 0.0 W/m2 CLR
16:45 73.0 °F 27.0 °F 29.93 in Calm     18% 0.00 in 0.0 W/m2 CLR
16:50 73.0 °F 27.0 °F 29.93 in Calm     18% 0.00 in 0.0 W/m2 CLR
16:55 73.0 °F 27.0 °F 29.93 in Calm     18% 0.00 in 0.0 W/m2 CLR
17:00 73.0 °F 27.0 °F 29.93 in Calm     18% 0.00 in 0.0 W/m2 CLR
17:05 71.1 °F 27.9 °F 29.92 in Calm     20% 0.00 in 0.0 W/m2 CLR
17:10 71.1 °F 27.9 °F 29.92 in Calm     20% 0.00 in 0.0 W/m2 CLR
17:15 71.1 °F 27.9 °F 29.92 in Calm     20% 0.00 in 0.0 W/m2 CLR
17:20 71.1 °F 27.9 °F 29.92 in Calm     20% 0.00 in 0.0 W/m2 CLR
17:25 71.1 °F 27.9 °F 29.92 in Calm     20% 0.00 in 0.0 W/m2 CLR
17:30 71.1 °F 27.9 °F 29.92 in Calm     20% 0.00 in 0.0 W/m2 CLR
17:35 71.1 °F 27.9 °F 29.92 in Calm     20% 0.00 in 0.0 W/m2 CLR
17:40 71.1 °F 27.9 °F 29.92 in Calm     20% 0.00 in 0.0 W/m2 CLR
17:45 71.1 °F 27.9 °F 29.92 in Calm     20% 0.00 in 0.0 W/m2 CLR
17:50 71.1 °F 27.9 °F 29.92 in Calm     20% 0.00 in 0.0 W/m2 CLR
17:55 71.1 °F 27.9 °F 29.92 in Calm     20% 0.00 in 0.0 W/m2 CLR
18:00 71.1 °F 27.9 °F 29.92 in Calm     20% 0.00 in 0.0 W/m2 CLR
18:05 66.0 °F 26.0 °F 29.95 in Calm     22% 0.00 in 0.0 W/m2 CLR
18:10 66.0 °F 26.0 °F 29.95 in Calm     22% 0.00 in 0.0 W/m2 CLR
18:15 66.0 °F 26.0 °F 29.95 in Calm     22% 0.00 in 0.0 W/m2 CLR
18:20 66.0 °F 26.0 °F 29.95 in Calm     22% 0.00 in 0.0 W/m2 CLR
18:25 66.0 °F 26.0 °F 29.95 in Calm     22% 0.00 in 0.0 W/m2 CLR
18:30 66.0 °F 26.0 °F 29.95 in Calm     22% 0.00 in 0.0 W/m2 CLR
18:35 66.0 °F 26.0 °F 29.95 in Calm     22% 0.00 in 0.0 W/m2 CLR
18:40 66.0 °F 26.0 °F 29.95 in Calm     22% 0.00 in 0.0 W/m2 CLR
18:45 66.0 °F 26.0 °F 29.95 in Calm     22% 0.00 in 0.0 W/m2 CLR
18:50 66.0 °F 26.0 °F 29.95 in Calm     22% 0.00 in 0.0 W/m2 CLR
18:55 66.0 °F 26.0 °F 29.95 in Calm     22% 0.00 in 0.0 W/m2 CLR
19:00 66.0 °F 26.0 °F 29.95 in Calm     22% 0.00 in 0.0 W/m2 CLR
19:05 64.0 °F 26.5 °F 29.97 in Calm     24% 0.00 in 0.0 W/m2 CLR
19:10 64.0 °F 26.5 °F 29.97 in Calm     24% 0.00 in 0.0 W/m2 CLR
19:15 64.0 °F 26.5 °F 29.97 in Calm     24% 0.00 in 0.0 W/m2 CLR
19:20 64.0 °F 26.5 °F 29.97 in Calm     24% 0.00 in 0.0 W/m2 CLR
19:25 64.0 °F 26.5 °F 29.97 in Calm     24% 0.00 in 0.0 W/m2 CLR
19:30 64.0 °F 26.5 °F 29.97 in Calm     24% 0.00 in 0.0 W/m2 CLR
19:35 64.0 °F 26.5 °F 29.97 in Calm     24% 0.00 in 0.0 W/m2 CLR
19:40 64.0 °F 26.5 °F 29.97 in Calm     24% 0.00 in 0.0 W/m2 CLR
19:45 64.0 °F 26.5 °F 29.97 in Calm     24% 0.00 in 0.0 W/m2 CLR
19:50 64.0 °F 26.5 °F 29.97 in Calm     24% 0.00 in 0.0 W/m2 CLR
19:51 64.0 °F 26.5 °F 29.97 in Calm     24% 0.00 in 0.0 W/m2 CLR
19:56 64.0 °F 26.5 °F 29.97 in Calm     24% 0.00 in 0.0 W/m2 CLR
20:01 61.0 °F 31.6 °F 30.00 in Calm     33% 0.00 in 0.0 W/m2 CLR
20:06 61.0 °F 31.6 °F 30.00 in Calm     33% 0.00 in 0.0 W/m2 CLR
20:11 61.0 °F 31.6 °F 30.00 in Calm     33% 0.00 in 0.0 W/m2 CLR
20:16 61.0 °F 31.6 °F 30.00 in Calm     33% 0.00 in 0.0 W/m2 CLR
20:21 61.0 °F 31.6 °F 30.00 in Calm     33% 0.00 in 0.0 W/m2 CLR
20:26 61.0 °F 31.6 °F 30.00 in Calm     33% 0.00 in 0.0 W/m2 CLR
20:31 61.0 °F 31.6 °F 30.00 in Calm     33% 0.00 in 0.0 W/m2 CLR
20:36 61.0 °F 31.6 °F 30.00 in Calm     33% 0.00 in 0.0 W/m2 CLR
20:41 61.0 °F 31.6 °F 30.00 in Calm     33% 0.00 in 0.0 W/m2 CLR
20:46 61.0 °F 31.6 °F 30.00 in Calm     33% 0.00 in 0.0 W/m2 CLR
20:51 61.0 °F 31.6 °F 30.00 in Calm     33% 0.00 in 0.0 W/m2 CLR
20:56 61.0 °F 31.6 °F 30.00 in Calm     33% 0.00 in 0.0 W/m2 CLR
21:01 59.0 °F 35.3 °F 30.02 in Calm     41% 0.00 in 0.0 W/m2 CLR
21:06 59.0 °F 35.3 °F 30.02 in Calm     41% 0.00 in 0.0 W/m2 CLR
21:11 59.0 °F 35.3 °F 30.02 in Calm     41% 0.00 in 0.0 W/m2 CLR
21:16 59.0 °F 35.3 °F 30.02 in Calm     41% 0.00 in 0.0 W/m2 CLR
21:21 59.0 °F 35.3 °F 30.02 in Calm     41% 0.00 in 0.0 W/m2 CLR
21:26 59.0 °F 35.3 °F 30.02 in Calm     41% 0.00 in 0.0 W/m2 CLR
21:31 59.0 °F 35.3 °F 30.02 in Calm     41% 0.00 in 0.0 W/m2 CLR
21:36 59.0 °F 35.3 °F 30.02 in Calm     41% 0.00 in 0.0 W/m2 CLR
21:41 59.0 °F 35.3 °F 30.02 in Calm     41% 0.00 in 0.0 W/m2 CLR
21:46 59.0 °F 35.3 °F 30.02 in Calm     41% 0.00 in 0.0 W/m2 CLR
21:51 59.0 °F 35.3 °F 30.02 in Calm     41% 0.00 in 0.0 W/m2 CLR
21:56 59.0 °F 35.3 °F 30.02 in Calm     41% 0.00 in 0.0 W/m2 CLR
22:01 57.9 °F 37.8 °F 30.03 in Calm     47% 0.00 in 0.0 W/m2 CLR
22:06 57.9 °F 37.8 °F 30.03 in Calm     47% 0.00 in 0.0 W/m2 CLR
22:11 57.9 °F 37.8 °F 30.03 in Calm     47% 0.00 in 0.0 W/m2 CLR
22:16 57.9 °F 37.8 °F 30.03 in Calm     47% 0.00 in 0.0 W/m2 CLR
22:21 57.9 °F 37.8 °F 30.03 in Calm     47% 0.00 in 0.0 W/m2 CLR
22:26 57.9 °F 37.8 °F 30.03 in Calm     47% 0.00 in 0.0 W/m2 CLR
22:31 57.9 °F 37.8 °F 30.03 in Calm     47% 0.00 in 0.0 W/m2 CLR
22:36 57.9 °F 37.8 °F 30.03 in Calm     47% 0.00 in 0.0 W/m2 CLR
22:41 57.9 °F 37.8 °F 30.03 in Calm     47% 0.00 in 0.0 W/m2 CLR
22:46 57.9 °F 37.8 °F 30.03 in Calm     47% 0.00 in 0.0 W/m2 CLR
22:51 57.9 °F 37.8 °F 30.03 in Calm     47% 0.00 in 0.0 W/m2 CLR
22:56 57.9 °F 37.8 °F 30.03 in Calm     47% 0.00 in 0.0 W/m2 CLR
23:01 57.0 °F 40.5 °F 30.04 in Calm     54% 0.00 in 0.0 W/m2 CLR
23:06 57.0 °F 40.5 °F 30.04 in Calm     54% 0.00 in 0.0 W/m2 CLR
23:11 57.0 °F 40.5 °F 30.04 in Calm     54% 0.00 in 0.0 W/m2 CLR
23:16 57.0 °F 40.5 °F 30.04 in Calm     54% 0.00 in 0.0 W/m2 CLR
23:21 57.0 °F 40.5 °F 30.04 in Calm     54% 0.00 in 0.0 W/m2 CLR
23:26 57.0 °F 40.5 °F 30.04 in Calm     54% 0.00 in 0.0 W/m2 CLR
23:31 57.0 °F 40.5 °F 30.04 in Calm     54% 0.00 in 0.0 W/m2 CLR
23:36 57.0 °F 40.5 °F 30.04 in Calm     54% 0.00 in 0.0 W/m2 CLR
23:41 57.0 °F 40.5 °F 30.04 in Calm     54% 0.00 in 0.0 W/m2 CLR
23:46 57.0 °F 40.5 °F 30.04 in Calm     54% 0.00 in 0.0 W/m2 CLR
23:51 57.0 °F 40.5 °F 30.04 in Calm     54% 0.00 in 0.0 W/m2 CLR
23:56 57.0 °F 40.5 °F 30.04 in Calm     54% 0.00 in 0.0 W/m2 CLR
Lake Mary, FL, USA
Compliments of Weather Underground - 1.75 mb